sensor_id;sensor_type;location;lat;lon;timestamp;temperature;humidity
3380;DHT22;1703;51.964;7.642;2023-08-17T00:00:51;19.90;99.90
3380;DHT22;1703;51.964;7.642;2023-08-17T00:03:19;19.90;99.90
3380;DHT22;1703;51.964;7.642;2023-08-17T00:05:46;19.80;99.90
3380;DHT22;1703;51.964;7.642;2023-08-17T00:08:13;19.80;99.90
3380;DHT22;1703;51.964;7.642;2023-08-17T00:10:40;19.70;99.90
3380;DHT22;1703;51.964;7.642;2023-08-17T00:13:07;19.80;99.90
3380;DHT22;1703;51.964;7.642;2023-08-17T00:15:33;19.80;99.90
3380;DHT22;1703;51.964;7.642;2023-08-17T00:18:00;19.80;99.90
3380;DHT22;1703;51.964;7.642;2023-08-17T00:20:28;19.80;99.90
3380;DHT22;1703;51.964;7.642;2023-08-17T00:22:55;19.70;99.90
3380;DHT22;1703;51.964;7.642;2023-08-17T00:25:22;19.70;99.90
3380;DHT22;1703;51.964;7.642;2023-08-17T00:27:49;19.70;99.90
3380;DHT22;1703;51.964;7.642;2023-08-17T00:30:16;19.60;99.90
3380;DHT22;1703;51.964;7.642;2023-08-17T00:32:43;19.60;99.90
3380;DHT22;1703;51.964;7.642;2023-08-17T00:35:11;19.60;99.90
3380;DHT22;1703;51.964;7.642;2023-08-17T00:37:39;19.50;99.90
3380;DHT22;1703;51.964;7.642;2023-08-17T00:40:07;19.50;99.90
3380;DHT22;1703;51.964;7.642;2023-08-17T00:42:34;19.50;99.90
3380;DHT22;1703;51.964;7.642;2023-08-17T00:45:00;19.50;99.90
3380;DHT22;1703;51.964;7.642;2023-08-17T00:47:28;19.50;99.90
3380;DHT22;1703;51.964;7.642;2023-08-17T00:49:56;19.40;99.90
3380;DHT22;1703;51.964;7.642;2023-08-17T00:52:24;19.50;99.90
3380;DHT22;1703;51.964;7.642;2023-08-17T00:54:53;19.50;99.90
3380;DHT22;1703;51.964;7.642;2023-08-17T00:57:21;19.60;99.90
3380;DHT22;1703;51.964;7.642;2023-08-17T00:59:48;19.60;99.90
3380;DHT22;1703;51.964;7.642;2023-08-17T01:02:14;19.60;99.90
3380;DHT22;1703;51.964;7.642;2023-08-17T01:04:42;19.60;99.90
3380;DHT22;1703;51.964;7.642;2023-08-17T01:07:09;19.50;99.90
3380;DHT22;1703;51.964;7.642;2023-08-17T01:09:36;19.60;99.90
3380;DHT22;1703;51.964;7.642;2023-08-17T01:12:26;19.60;99.90
3380;DHT22;1703;51.964;7.642;2023-08-17T01:15:04;19.60;99.90
3380;DHT22;1703;51.964;7.642;2023-08-17T01:17:36;19.60;99.90
3380;DHT22;1703;51.964;7.642;2023-08-17T01:20:04;19.60;99.90
3380;DHT22;1703;51.964;7.642;2023-08-17T01:22:32;19.60;99.90
3380;DHT22;1703;51.964;7.642;2023-08-17T01:25:03;19.60;99.90
3380;DHT22;1703;51.964;7.642;2023-08-17T01:27:39;19.50;99.90
3380;DHT22;1703;51.964;7.642;2023-08-17T01:30:07;19.50;99.90
3380;DHT22;1703;51.964;7.642;2023-08-17T01:32:38;19.50;99.90
3380;DHT22;1703;51.964;7.642;2023-08-17T01:35:11;19.50;99.90
3380;DHT22;1703;51.964;7.642;2023-08-17T01:37:41;19.60;99.90
3380;DHT22;1703;51.964;7.642;2023-08-17T01:40:12;19.60;99.90
3380;DHT22;1703;51.964;7.642;2023-08-17T01:42:41;19.60;99.90
3380;DHT22;1703;51.964;7.642;2023-08-17T01:45:09;19.60;99.90
3380;DHT22;1703;51.964;7.642;2023-08-17T01:47:37;19.70;99.90
3380;DHT22;1703;51.964;7.642;2023-08-17T01:50:05;19.70;99.90
3380;DHT22;1703;51.964;7.642;2023-08-17T01:52:31;19.70;99.90
3380;DHT22;1703;51.964;7.642;2023-08-17T01:55:00;19.60;99.90
3380;DHT22;1703;51.964;7.642;2023-08-17T01:57:28;19.50;99.90
3380;DHT22;1703;51.964;7.642;2023-08-17T01:59:57;19.40;99.90
3380;DHT22;1703;51.964;7.642;2023-08-17T02:02:25;19.20;99.90
3380;DHT22;1703;51.964;7.642;2023-08-17T02:04:52;19.00;99.90
3380;DHT22;1703;51.964;7.642;2023-08-17T02:07:18;18.90;99.90
3380;DHT22;1703;51.964;7.642;2023-08-17T02:09:48;18.90;99.90
3380;DHT22;1703;51.964;7.642;2023-08-17T02:12:15;18.80;99.90
3380;DHT22;1703;51.964;7.642;2023-08-17T02:14:43;18.70;99.90
3380;DHT22;1703;51.964;7.642;2023-08-17T02:17:10;18.70;99.90
3380;DHT22;1703;51.964;7.642;2023-08-17T02:19:37;18.70;99.90
3380;DHT22;1703;51.964;7.642;2023-08-17T02:22:05;18.70;99.90
3380;DHT22;1703;51.964;7.642;2023-08-17T02:24:32;18.80;99.90
3380;DHT22;1703;51.964;7.642;2023-08-17T02:26:58;18.80;99.90
3380;DHT22;1703;51.964;7.642;2023-08-17T02:29:25;18.80;99.90
3380;DHT22;1703;51.964;7.642;2023-08-17T02:31:53;18.80;99.90
3380;DHT22;1703;51.964;7.642;2023-08-17T02:34:20;18.70;99.90
3380;DHT22;1703;51.964;7.642;2023-08-17T02:36:47;18.70;99.90
3380;DHT22;1703;51.964;7.642;2023-08-17T02:39:14;18.60;99.90
3380;DHT22;1703;51.964;7.642;2023-08-17T02:41:41;18.60;99.90
3380;DHT22;1703;51.964;7.642;2023-08-17T02:44:10;18.50;99.90
3380;DHT22;1703;51.964;7.642;2023-08-17T02:46:37;18.40;99.90
3380;DHT22;1703;51.964;7.642;2023-08-17T02:49:05;18.40;99.90
3380;DHT22;1703;51.964;7.642;2023-08-17T02:51:33;18.40;99.90
3380;DHT22;1703;51.964;7.642;2023-08-17T02:54:00;18.40;99.90
3380;DHT22;1703;51.964;7.642;2023-08-17T02:56:26;18.50;99.90
3380;DHT22;1703;51.964;7.642;2023-08-17T02:58:53;18.40;99.90
3380;DHT22;1703;51.964;7.642;2023-08-17T03:01:20;18.40;99.90
3380;DHT22;1703;51.964;7.642;2023-08-17T03:03:48;18.30;99.90
3380;DHT22;1703;51.964;7.642;2023-08-17T03:06:16;18.40;99.90
3380;DHT22;1703;51.964;7.642;2023-08-17T03:08:43;18.40;99.90
3380;DHT22;1703;51.964;7.642;2023-08-17T03:11:11;18.30;99.90
3380;DHT22;1703;51.964;7.642;2023-08-17T03:13:37;18.30;99.90
3380;DHT22;1703;51.964;7.642;2023-08-17T03:16:04;18.30;99.90
3380;DHT22;1703;51.964;7.642;2023-08-17T03:18:31;18.30;99.90
3380;DHT22;1703;51.964;7.642;2023-08-17T03:20:58;18.30;99.90
3380;DHT22;1703;51.964;7.642;2023-08-17T03:23:27;18.30;99.90
3380;DHT22;1703;51.964;7.642;2023-08-17T03:25:54;18.30;99.90
3380;DHT22;1703;51.964;7.642;2023-08-17T03:28:21;18.40;99.90
3380;DHT22;1703;51.964;7.642;2023-08-17T03:30:49;18.40;99.90
3380;DHT22;1703;51.964;7.642;2023-08-17T03:33:16;18.40;99.90
3380;DHT22;1703;51.964;7.642;2023-08-17T03:35:43;18.30;99.90
3380;DHT22;1703;51.964;7.642;2023-08-17T03:38:10;18.30;99.90
3380;DHT22;1703;51.964;7.642;2023-08-17T03:40:38;18.20;99.90
3380;DHT22;1703;51.964;7.642;2023-08-17T03:43:05;18.20;99.90
3380;DHT22;1703;51.964;7.642;2023-08-17T03:45:32;18.20;99.90
3380;DHT22;1703;51.964;7.642;2023-08-17T03:47:59;18.20;99.90
3380;DHT22;1703;51.964;7.642;2023-08-17T03:50:28;18.10;99.90
3380;DHT22;1703;51.964;7.642;2023-08-17T03:52:54;18.10;99.90
3380;DHT22;1703;51.964;7.642;2023-08-17T03:55:21;18.10;99.90
3380;DHT22;1703;51.964;7.642;2023-08-17T03:57:49;18.10;99.90
3380;DHT22;1703;51.964;7.642;2023-08-17T04:00:16;18.10;99.90
3380;DHT22;1703;51.964;7.642;2023-08-17T04:02:43;18.00;99.90
3380;DHT22;1703;51.964;7.642;2023-08-17T04:05:15;18.00;99.90
3380;DHT22;1703;51.964;7.642;2023-08-17T04:07:42;18.10;99.90
3380;DHT22;1703;51.964;7.642;2023-08-17T04:10:09;18.00;99.90
3380;DHT22;1703;51.964;7.642;2023-08-17T04:12:36;18.00;99.90
3380;DHT22;1703;51.964;7.642;2023-08-17T04:15:05;18.00;99.90
3380;DHT22;1703;51.964;7.642;2023-08-17T04:17:32;18.00;99.90
3380;DHT22;1703;51.964;7.642;2023-08-17T04:19:59;17.90;99.90
3380;DHT22;1703;51.964;7.642;2023-08-17T04:22:26;18.00;99.90
3380;DHT22;1703;51.964;7.642;2023-08-17T04:24:53;18.10;99.90
3380;DHT22;1703;51.964;7.642;2023-08-17T04:27:21;18.10;99.90
3380;DHT22;1703;51.964;7.642;2023-08-17T04:29:48;18.00;99.90
3380;DHT22;1703;51.964;7.642;2023-08-17T04:32:16;18.00;99.90
3380;DHT22;1703;51.964;7.642;2023-08-17T04:34:44;18.10;99.90
3380;DHT22;1703;51.964;7.642;2023-08-17T04:37:14;18.10;99.90
3380;DHT22;1703;51.964;7.642;2023-08-17T04:39:41;18.10;99.90
3380;DHT22;1703;51.964;7.642;2023-08-17T04:42:09;18.10;99.90
3380;DHT22;1703;51.964;7.642;2023-08-17T04:44:36;18.10;99.90
3380;DHT22;1703;51.964;7.642;2023-08-17T04:47:03;18.00;99.90
3380;DHT22;1703;51.964;7.642;2023-08-17T04:49:32;18.00;99.90
3380;DHT22;1703;51.964;7.642;2023-08-17T04:51:59;18.10;99.90
3380;DHT22;1703;51.964;7.642;2023-08-17T04:54:26;18.10;99.90
3380;DHT22;1703;51.964;7.642;2023-08-17T04:56:53;18.10;99.90
3380;DHT22;1703;51.964;7.642;2023-08-17T04:59:20;18.00;99.90
3380;DHT22;1703;51.964;7.642;2023-08-17T05:01:47;18.10;99.90
3380;DHT22;1703;51.964;7.642;2023-08-17T05:04:14;18.10;99.90
3380;DHT22;1703;51.964;7.642;2023-08-17T05:06:44;18.00;99.90
3380;DHT22;1703;51.964;7.642;2023-08-17T05:09:11;18.00;99.90
3380;DHT22;1703;51.964;7.642;2023-08-17T05:11:39;18.00;99.90
3380;DHT22;1703;51.964;7.642;2023-08-17T05:14:06;18.10;99.90
3380;DHT22;1703;51.964;7.642;2023-08-17T05:16:33;18.10;99.90
3380;DHT22;1703;51.964;7.642;2023-08-17T05:19:00;18.10;99.90
3380;DHT22;1703;51.964;7.642;2023-08-17T05:21:27;18.00;99.90
3380;DHT22;1703;51.964;7.642;2023-08-17T05:23:56;18.00;99.90
3380;DHT22;1703;51.964;7.642;2023-08-17T05:26:23;18.10;99.90
3380;DHT22;1703;51.964;7.642;2023-08-17T05:28:50;18.10;99.90
3380;DHT22;1703;51.964;7.642;2023-08-17T05:31:17;18.10;99.90
3380;DHT22;1703;51.964;7.642;2023-08-17T05:33:46;18.10;99.90
3380;DHT22;1703;51.964;7.642;2023-08-17T05:36:13;18.00;99.90
3380;DHT22;1703;51.964;7.642;2023-08-17T05:38:40;18.00;99.90
3380;DHT22;1703;51.964;7.642;2023-08-17T05:41:08;17.90;99.90
3380;DHT22;1703;51.964;7.642;2023-08-17T05:43:35;17.90;99.90
3380;DHT22;1703;51.964;7.642;2023-08-17T05:46:02;18.00;99.90
3380;DHT22;1703;51.964;7.642;2023-08-17T05:48:29;18.00;99.90
3380;DHT22;1703;51.964;7.642;2023-08-17T05:50:56;18.00;99.90
3380;DHT22;1703;51.964;7.642;2023-08-17T05:53:23;18.10;99.90
3380;DHT22;1703;51.964;7.642;2023-08-17T05:55:50;18.00;99.90
3380;DHT22;1703;51.964;7.642;2023-08-17T05:58:18;18.00;99.90
3380;DHT22;1703;51.964;7.642;2023-08-17T06:00:44;18.00;99.90
3380;DHT22;1703;51.964;7.642;2023-08-17T06:03:11;18.10;99.90
3380;DHT22;1703;51.964;7.642;2023-08-17T06:05:39;18.10;99.90
3380;DHT22;1703;51.964;7.642;2023-08-17T06:08:06;18.10;99.90
3380;DHT22;1703;51.964;7.642;2023-08-17T06:10:33;18.10;99.90
3380;DHT22;1703;51.964;7.642;2023-08-17T06:12:59;18.20;99.90
3380;DHT22;1703;51.964;7.642;2023-08-17T06:15:27;18.20;99.90
3380;DHT22;1703;51.964;7.642;2023-08-17T06:17:54;18.20;99.90
3380;DHT22;1703;51.964;7.642;2023-08-17T06:20:21;18.20;99.90
3380;DHT22;1703;51.964;7.642;2023-08-17T06:22:48;18.20;99.90
3380;DHT22;1703;51.964;7.642;2023-08-17T06:25:15;18.30;99.90
3380;DHT22;1703;51.964;7.642;2023-08-17T06:27:42;18.30;99.90
3380;DHT22;1703;51.964;7.642;2023-08-17T06:30:10;18.30;99.90
3380;DHT22;1703;51.964;7.642;2023-08-17T06:32:39;18.30;99.90
3380;DHT22;1703;51.964;7.642;2023-08-17T06:35:07;18.40;99.90
3380;DHT22;1703;51.964;7.642;2023-08-17T06:37:34;18.40;99.90
3380;DHT22;1703;51.964;7.642;2023-08-17T06:40:01;18.40;99.90
3380;DHT22;1703;51.964;7.642;2023-08-17T06:42:28;18.40;99.90
3380;DHT22;1703;51.964;7.642;2023-08-17T06:44:55;18.40;99.90
3380;DHT22;1703;51.964;7.642;2023-08-17T06:47:21;18.40;99.90
3380;DHT22;1703;51.964;7.642;2023-08-17T06:49:50;18.30;99.90
3380;DHT22;1703;51.964;7.642;2023-08-17T06:52:16;18.30;99.90
3380;DHT22;1703;51.964;7.642;2023-08-17T06:54:43;18.30;99.90
3380;DHT22;1703;51.964;7.642;2023-08-17T06:57:10;18.30;99.90
3380;DHT22;1703;51.964;7.642;2023-08-17T06:59:37;18.40;99.90
3380;DHT22;1703;51.964;7.642;2023-08-17T07:02:03;18.40;99.90
3380;DHT22;1703;51.964;7.642;2023-08-17T07:04:30;18.50;99.90
3380;DHT22;1703;51.964;7.642;2023-08-17T07:07:16;18.50;99.90
3380;DHT22;1703;51.964;7.642;2023-08-17T07:09:46;18.50;99.90
3380;DHT22;1703;51.964;7.642;2023-08-17T07:12:12;18.60;99.90
3380;DHT22;1703;51.964;7.642;2023-08-17T07:14:39;18.50;99.90
3380;DHT22;1703;51.964;7.642;2023-08-17T07:17:06;18.60;99.90
3380;DHT22;1703;51.964;7.642;2023-08-17T07:19:33;18.60;99.90
3380;DHT22;1703;51.964;7.642;2023-08-17T07:22:00;18.60;99.90
3380;DHT22;1703;51.964;7.642;2023-08-17T07:24:28;18.70;99.90
3380;DHT22;1703;51.964;7.642;2023-08-17T07:26:55;18.70;99.90
3380;DHT22;1703;51.964;7.642;2023-08-17T07:29:22;18.70;99.90
3380;DHT22;1703;51.964;7.642;2023-08-17T07:31:49;18.70;99.90
3380;DHT22;1703;51.964;7.642;2023-08-17T07:34:16;18.60;99.90
3380;DHT22;1703;51.964;7.642;2023-08-17T07:36:43;18.60;99.90
3380;DHT22;1703;51.964;7.642;2023-08-17T07:39:12;18.60;99.90
3380;DHT22;1703;51.964;7.642;2023-08-17T07:41:40;18.70;99.90
3380;DHT22;1703;51.964;7.642;2023-08-17T07:44:07;18.80;99.90
3380;DHT22;1703;51.964;7.642;2023-08-17T07:46:34;18.80;99.90
3380;DHT22;1703;51.964;7.642;2023-08-17T07:49:01;18.80;99.90
3380;DHT22;1703;51.964;7.642;2023-08-17T07:51:27;18.80;99.90
3380;DHT22;1703;51.964;7.642;2023-08-17T07:53:55;18.90;99.90
3380;DHT22;1703;51.964;7.642;2023-08-17T07:56:22;18.80;99.90
3380;DHT22;1703;51.964;7.642;2023-08-17T07:58:50;18.90;99.90
3380;DHT22;1703;51.964;7.642;2023-08-17T08:01:17;18.90;99.90
3380;DHT22;1703;51.964;7.642;2023-08-17T08:03:44;18.90;99.90
3380;DHT22;1703;51.964;7.642;2023-08-17T08:06:11;19.00;99.90
3380;DHT22;1703;51.964;7.642;2023-08-17T08:08:38;19.00;99.90
3380;DHT22;1703;51.964;7.642;2023-08-17T08:11:04;19.10;99.90
3380;DHT22;1703;51.964;7.642;2023-08-17T08:13:32;19.00;99.90
3380;DHT22;1703;51.964;7.642;2023-08-17T08:16:00;19.00;99.90
3380;DHT22;1703;51.964;7.642;2023-08-17T08:18:27;19.00;99.90
3380;DHT22;1703;51.964;7.642;2023-08-17T08:20:53;19.00;99.90
3380;DHT22;1703;51.964;7.642;2023-08-17T08:23:20;19.00;99.90
3380;DHT22;1703;51.964;7.642;2023-08-17T08:25:47;19.10;99.90
3380;DHT22;1703;51.964;7.642;2023-08-17T08:28:14;19.10;99.90
3380;DHT22;1703;51.964;7.642;2023-08-17T08:30:40;19.10;99.90
3380;DHT22;1703;51.964;7.642;2023-08-17T08:33:08;19.00;99.90
3380;DHT22;1703;51.964;7.642;2023-08-17T08:35:35;19.00;99.90
3380;DHT22;1703;51.964;7.642;2023-08-17T08:38:02;19.10;99.90
3380;DHT22;1703;51.964;7.642;2023-08-17T08:40:29;19.10;99.90
3380;DHT22;1703;51.964;7.642;2023-08-17T08:42:57;19.20;99.90
3380;DHT22;1703;51.964;7.642;2023-08-17T08:45:27;19.20;99.90
3380;DHT22;1703;51.964;7.642;2023-08-17T08:47:54;19.20;99.90
3380;DHT22;1703;51.964;7.642;2023-08-17T08:50:25;19.30;99.90
3380;DHT22;1703;51.964;7.642;2023-08-17T08:52:58;19.30;99.90
3380;DHT22;1703;51.964;7.642;2023-08-17T08:55:29;19.40;99.90
3380;DHT22;1703;51.964;7.642;2023-08-17T08:57:56;19.50;99.90
3380;DHT22;1703;51.964;7.642;2023-08-17T09:00:25;19.70;99.90
3380;DHT22;1703;51.964;7.642;2023-08-17T09:02:52;19.70;99.90
3380;DHT22;1703;51.964;7.642;2023-08-17T09:05:22;19.70;99.90
3380;DHT22;1703;51.964;7.642;2023-08-17T09:07:49;19.80;99.90
3380;DHT22;1703;51.964;7.642;2023-08-17T09:10:16;19.80;99.90
3380;DHT22;1703;51.964;7.642;2023-08-17T09:12:45;19.90;99.90
3380;DHT22;1703;51.964;7.642;2023-08-17T09:15:14;19.80;99.90
3380;DHT22;1703;51.964;7.642;2023-08-17T09:17:41;19.90;99.90
3380;DHT22;1703;51.964;7.642;2023-08-17T09:20:09;19.80;99.90
3380;DHT22;1703;51.964;7.642;2023-08-17T09:22:40;19.80;99.90
3380;DHT22;1703;51.964;7.642;2023-08-17T09:25:07;19.80;99.90
3380;DHT22;1703;51.964;7.642;2023-08-17T09:27:36;19.70;99.90
3380;DHT22;1703;51.964;7.642;2023-08-17T09:30:04;19.70;99.90
3380;DHT22;1703;51.964;7.642;2023-08-17T09:32:32;19.80;99.90
3380;DHT22;1703;51.964;7.642;2023-08-17T09:35:01;19.80;99.90
3380;DHT22;1703;51.964;7.642;2023-08-17T09:37:28;19.70;99.90
3380;DHT22;1703;51.964;7.642;2023-08-17T09:39:56;19.80;99.90
3380;DHT22;1703;51.964;7.642;2023-08-17T09:42:23;19.80;99.90
3380;DHT22;1703;51.964;7.642;2023-08-17T09:44:51;19.80;99.90
3380;DHT22;1703;51.964;7.642;2023-08-17T09:47:18;19.80;99.90
3380;DHT22;1703;51.964;7.642;2023-08-17T09:49:48;19.70;99.90
3380;DHT22;1703;51.964;7.642;2023-08-17T09:52:16;19.60;99.90
3380;DHT22;1703;51.964;7.642;2023-08-17T09:54:43;19.70;99.90
3380;DHT22;1703;51.964;7.642;2023-08-17T09:57:13;19.70;99.90
3380;DHT22;1703;51.964;7.642;2023-08-17T10:00:10;19.80;99.90
3380;DHT22;1703;51.964;7.642;2023-08-17T10:05:38;19.90;99.90
3380;DHT22;1703;51.964;7.642;2023-08-17T10:08:11;19.90;99.90
3380;DHT22;1703;51.964;7.642;2023-08-17T10:10:43;19.90;99.90
3380;DHT22;1703;51.964;7.642;2023-08-17T10:16:44;20.00;99.90
3380;DHT22;1703;51.964;7.642;2023-08-17T10:19:25;20.00;99.90
3380;DHT22;1703;51.964;7.642;2023-08-17T10:22:01;20.00;99.90
3380;DHT22;1703;51.964;7.642;2023-08-17T10:24:31;20.00;99.90
3380;DHT22;1703;51.964;7.642;2023-08-17T10:26:59;20.00;99.90
3380;DHT22;1703;51.964;7.642;2023-08-17T10:29:28;20.00;99.90
3380;DHT22;1703;51.964;7.642;2023-08-17T10:31:55;20.00;99.90
3380;DHT22;1703;51.964;7.642;2023-08-17T10:34:23;20.00;99.90
3380;DHT22;1703;51.964;7.642;2023-08-17T10:36:51;20.10;99.90
3380;DHT22;1703;51.964;7.642;2023-08-17T10:39:21;20.10;99.90
3380;DHT22;1703;51.964;7.642;2023-08-17T10:41:50;20.10;99.90
3380;DHT22;1703;51.964;7.642;2023-08-17T10:44:18;20.10;99.90
3380;DHT22;1703;51.964;7.642;2023-08-17T10:46:46;20.20;99.90
3380;DHT22;1703;51.964;7.642;2023-08-17T10:49:26;20.20;99.90
3380;DHT22;1703;51.964;7.642;2023-08-17T10:52:03;20.30;99.90
3380;DHT22;1703;51.964;7.642;2023-08-17T10:54:37;20.30;99.90
3380;DHT22;1703;51.964;7.642;2023-08-17T10:57:28;20.40;99.90
3380;DHT22;1703;51.964;7.642;2023-08-17T11:00:17;20.50;99.90
3380;DHT22;1703;51.964;7.642;2023-08-17T11:02:54;20.50;99.90
3380;DHT22;1703;51.964;7.642;2023-08-17T11:05:38;20.50;99.90
3380;DHT22;1703;51.964;7.642;2023-08-17T11:08:05;20.60;99.90
3380;DHT22;1703;51.964;7.642;2023-08-17T11:10:33;20.50;99.90
3380;DHT22;1703;51.964;7.642;2023-08-17T11:13:00;20.60;99.90
3380;DHT22;1703;51.964;7.642;2023-08-17T11:15:36;20.60;99.90
3380;DHT22;1703;51.964;7.642;2023-08-17T11:18:09;20.50;99.90
3380;DHT22;1703;51.964;7.642;2023-08-17T11:20:38;20.50;99.90
3380;DHT22;1703;51.964;7.642;2023-08-17T11:23:06;20.50;99.90
3380;DHT22;1703;51.964;7.642;2023-08-17T11:25:33;20.40;99.90
3380;DHT22;1703;51.964;7.642;2023-08-17T11:28:01;20.30;99.90
3380;DHT22;1703;51.964;7.642;2023-08-17T11:30:28;20.40;99.90
3380;DHT22;1703;51.964;7.642;2023-08-17T11:32:57;20.20;99.90
3380;DHT22;1703;51.964;7.642;2023-08-17T11:35:25;20.30;99.90
3380;DHT22;1703;51.964;7.642;2023-08-17T11:37:52;20.30;99.90
3380;DHT22;1703;51.964;7.642;2023-08-17T11:40:19;20.30;99.90
3380;DHT22;1703;51.964;7.642;2023-08-17T11:42:46;20.20;99.90
3380;DHT22;1703;51.964;7.642;2023-08-17T11:45:13;20.30;99.90
3380;DHT22;1703;51.964;7.642;2023-08-17T11:47:40;20.20;99.90
3380;DHT22;1703;51.964;7.642;2023-08-17T11:50:10;20.20;99.90
3380;DHT22;1703;51.964;7.642;2023-08-17T11:52:38;20.30;99.90
3380;DHT22;1703;51.964;7.642;2023-08-17T11:55:06;20.30;99.90
3380;DHT22;1703;51.964;7.642;2023-08-17T11:57:35;20.20;99.90
3380;DHT22;1703;51.964;7.642;2023-08-17T12:00:04;20.20;99.90
3380;DHT22;1703;51.964;7.642;2023-08-17T12:02:32;20.30;99.90
3380;DHT22;1703;51.964;7.642;2023-08-17T12:05:04;20.40;99.90
3380;DHT22;1703;51.964;7.642;2023-08-17T12:07:32;20.40;99.90
3380;DHT22;1703;51.964;7.642;2023-08-17T12:10:02;20.40;99.90
3380;DHT22;1703;51.964;7.642;2023-08-17T12:12:30;20.40;99.90
3380;DHT22;1703;51.964;7.642;2023-08-17T12:14:57;20.40;99.90
3380;DHT22;1703;51.964;7.642;2023-08-17T12:17:24;20.40;99.90
3380;DHT22;1703;51.964;7.642;2023-08-17T12:19:54;20.40;99.90
3380;DHT22;1703;51.964;7.642;2023-08-17T12:22:24;20.40;99.90
3380;DHT22;1703;51.964;7.642;2023-08-17T12:24:52;20.40;99.90
3380;DHT22;1703;51.964;7.642;2023-08-17T12:27:21;20.40;99.90
3380;DHT22;1703;51.964;7.642;2023-08-17T12:29:49;20.50;99.90
3380;DHT22;1703;51.964;7.642;2023-08-17T12:32:17;20.50;99.90
3380;DHT22;1703;51.964;7.642;2023-08-17T12:34:44;20.50;99.90
3380;DHT22;1703;51.964;7.642;2023-08-17T12:37:11;20.60;99.90
3380;DHT22;1703;51.964;7.642;2023-08-17T12:39:38;20.50;99.90
3380;DHT22;1703;51.964;7.642;2023-08-17T12:42:05;20.50;99.90
3380;DHT22;1703;51.964;7.642;2023-08-17T12:44:34;20.60;99.90
3380;DHT22;1703;51.964;7.642;2023-08-17T12:47:00;20.60;99.90
3380;DHT22;1703;51.964;7.642;2023-08-17T12:49:27;20.70;99.90
3380;DHT22;1703;51.964;7.642;2023-08-17T12:51:54;20.70;99.90
3380;DHT22;1703;51.964;7.642;2023-08-17T12:54:21;20.70;99.90
3380;DHT22;1703;51.964;7.642;2023-08-17T12:56:48;20.80;99.90
3380;DHT22;1703;51.964;7.642;2023-08-17T12:59:15;20.80;99.90
3380;DHT22;1703;51.964;7.642;2023-08-17T13:01:43;20.80;99.90
3380;DHT22;1703;51.964;7.642;2023-08-17T13:04:10;20.80;99.90
3380;DHT22;1703;51.964;7.642;2023-08-17T13:06:37;20.80;99.90
3380;DHT22;1703;51.964;7.642;2023-08-17T13:09:05;20.80;99.90
3380;DHT22;1703;51.964;7.642;2023-08-17T13:11:32;20.80;99.90
3380;DHT22;1703;51.964;7.642;2023-08-17T13:13:59;20.90;99.90
3380;DHT22;1703;51.964;7.642;2023-08-17T13:16:25;20.80;99.90
3380;DHT22;1703;51.964;7.642;2023-08-17T13:18:54;20.80;99.90
3380;DHT22;1703;51.964;7.642;2023-08-17T13:21:20;20.90;99.90
3380;DHT22;1703;51.964;7.642;2023-08-17T13:23:47;20.90;99.90
3380;DHT22;1703;51.964;7.642;2023-08-17T13:26:14;20.90;99.90
3380;DHT22;1703;51.964;7.642;2023-08-17T13:28:41;20.90;99.90
3380;DHT22;1703;51.964;7.642;2023-08-17T13:31:08;20.90;99.90
3380;DHT22;1703;51.964;7.642;2023-08-17T13:33:34;21.00;99.90
3380;DHT22;1703;51.964;7.642;2023-08-17T13:36:03;21.10;99.90
3380;DHT22;1703;51.964;7.642;2023-08-17T13:38:29;21.20;99.90
3380;DHT22;1703;51.964;7.642;2023-08-17T13:40:57;21.30;99.90
3380;DHT22;1703;51.964;7.642;2023-08-17T13:43:23;21.40;99.90
3380;DHT22;1703;51.964;7.642;2023-08-17T13:45:50;21.40;99.90
3380;DHT22;1703;51.964;7.642;2023-08-17T13:48:17;21.40;99.90
3380;DHT22;1703;51.964;7.642;2023-08-17T13:50:53;21.40;99.90
3380;DHT22;1703;51.964;7.642;2023-08-17T13:56:25;21.40;99.90
3380;DHT22;1703;51.964;7.642;2023-08-17T13:58:52;21.40;99.90
3380;DHT22;1703;51.964;7.642;2023-08-17T14:01:18;21.40;99.90
3380;DHT22;1703;51.964;7.642;2023-08-17T14:03:45;21.40;99.90
3380;DHT22;1703;51.964;7.642;2023-08-17T14:06:12;21.40;99.90
3380;DHT22;1703;51.964;7.642;2023-08-17T14:08:38;21.40;99.90
3380;DHT22;1703;51.964;7.642;2023-08-17T14:11:05;21.40;99.90
3380;DHT22;1703;51.964;7.642;2023-08-17T14:13:34;21.30;99.90
3380;DHT22;1703;51.964;7.642;2023-08-17T14:16:02;21.20;99.90
3380;DHT22;1703;51.964;7.642;2023-08-17T14:18:28;21.10;99.90
3380;DHT22;1703;51.964;7.642;2023-08-17T14:20:55;21.10;99.90
3380;DHT22;1703;51.964;7.642;2023-08-17T14:23:22;21.10;99.90
3380;DHT22;1703;51.964;7.642;2023-08-17T14:25:49;21.10;99.90
3380;DHT22;1703;51.964;7.642;2023-08-17T14:28:17;21.10;99.90
3380;DHT22;1703;51.964;7.642;2023-08-17T14:30:45;21.10;99.90
3380;DHT22;1703;51.964;7.642;2023-08-17T14:33:12;21.00;99.90
3380;DHT22;1703;51.964;7.642;2023-08-17T14:35:40;21.00;99.90
3380;DHT22;1703;51.964;7.642;2023-08-17T14:38:07;21.00;99.90
3380;DHT22;1703;51.964;7.642;2023-08-17T14:40:35;21.00;99.90
3380;DHT22;1703;51.964;7.642;2023-08-17T14:43:02;20.90;99.90
3380;DHT22;1703;51.964;7.642;2023-08-17T14:45:28;20.90;99.90
3380;DHT22;1703;51.964;7.642;2023-08-17T14:47:56;21.00;99.90
3380;DHT22;1703;51.964;7.642;2023-08-17T14:50:24;21.00;99.90
3380;DHT22;1703;51.964;7.642;2023-08-17T14:52:51;21.00;99.90
3380;DHT22;1703;51.964;7.642;2023-08-17T14:55:18;21.00;99.90
3380;DHT22;1703;51.964;7.642;2023-08-17T14:57:44;21.00;99.90
3380;DHT22;1703;51.964;7.642;2023-08-17T15:00:12;21.00;99.90
3380;DHT22;1703;51.964;7.642;2023-08-17T15:02:39;20.90;99.90
3380;DHT22;1703;51.964;7.642;2023-08-17T15:05:08;20.90;99.90
3380;DHT22;1703;51.964;7.642;2023-08-17T15:07:34;20.90;99.90
3380;DHT22;1703;51.964;7.642;2023-08-17T15:10:01;20.90;99.90
3380;DHT22;1703;51.964;7.642;2023-08-17T15:12:28;20.90;99.90
3380;DHT22;1703;51.964;7.642;2023-08-17T15:14:55;20.90;99.90
3380;DHT22;1703;51.964;7.642;2023-08-17T15:17:21;20.90;99.90
3380;DHT22;1703;51.964;7.642;2023-08-17T15:19:48;21.00;99.90
3380;DHT22;1703;51.964;7.642;2023-08-17T15:22:16;21.00;99.90
3380;DHT22;1703;51.964;7.642;2023-08-17T15:24:44;21.00;99.90
3380;DHT22;1703;51.964;7.642;2023-08-17T15:27:11;21.10;99.90
3380;DHT22;1703;51.964;7.642;2023-08-17T15:29:38;21.00;99.90
3380;DHT22;1703;51.964;7.642;2023-08-17T15:32:05;21.00;99.90
3380;DHT22;1703;51.964;7.642;2023-08-17T15:34:32;21.10;99.90
3380;DHT22;1703;51.964;7.642;2023-08-17T15:36:59;21.00;99.90
3380;DHT22;1703;51.964;7.642;2023-08-17T15:39:27;21.00;99.90
3380;DHT22;1703;51.964;7.642;2023-08-17T15:41:54;21.00;99.90
3380;DHT22;1703;51.964;7.642;2023-08-17T15:44:20;21.00;99.90
3380;DHT22;1703;51.964;7.642;2023-08-17T15:46:47;21.00;99.90
3380;DHT22;1703;51.964;7.642;2023-08-17T15:49:14;20.90;99.90
3380;DHT22;1703;51.964;7.642;2023-08-17T15:51:41;20.90;99.90
3380;DHT22;1703;51.964;7.642;2023-08-17T15:54:07;20.90;99.90
3380;DHT22;1703;51.964;7.642;2023-08-17T15:56:36;21.00;99.90
3380;DHT22;1703;51.964;7.642;2023-08-17T15:59:03;20.90;99.90
3380;DHT22;1703;51.964;7.642;2023-08-17T16:01:29;21.00;99.90
3380;DHT22;1703;51.964;7.642;2023-08-17T16:03:57;20.90;99.90
3380;DHT22;1703;51.964;7.642;2023-08-17T16:06:24;20.90;99.90
3380;DHT22;1703;51.964;7.642;2023-08-17T16:08:51;21.00;99.90
3380;DHT22;1703;51.964;7.642;2023-08-17T16:11:18;20.90;99.90
3380;DHT22;1703;51.964;7.642;2023-08-17T16:13:46;20.90;99.90
3380;DHT22;1703;51.964;7.642;2023-08-17T16:16:13;20.80;99.90